createdAt,value
2023-02-08T00:01:15.150Z,72.18
2023-02-08T00:03:42.966Z,72.17
2023-02-08T00:06:11.236Z,72.04
2023-02-08T00:08:39.148Z,70.95
2023-02-08T00:11:08.009Z,70.73
2023-02-08T00:13:35.441Z,70.48
2023-02-08T00:16:03.826Z,70.48
2023-02-08T00:18:31.804Z,69.22
2023-02-08T00:20:59.219Z,70.11
2023-02-08T00:23:26.893Z,70.68
2023-02-08T00:25:54.614Z,69.98
2023-02-08T00:28:23.065Z,70.41
2023-02-08T00:30:50.377Z,70.28
2023-02-08T00:33:18.128Z,69.94
2023-02-08T00:35:45.429Z,69.83
2023-02-08T00:38:12.801Z,69.56
2023-02-08T00:40:40.851Z,68.36
2023-02-08T00:43:08.390Z,67.15
2023-02-08T00:45:35.823Z,66.85
2023-02-08T00:48:04.764Z,67.35
2023-02-08T00:50:32.080Z,67.27
2023-02-08T00:53:00.173Z,67.76
2023-02-08T00:55:27.994Z,67.48
2023-02-08T00:57:55.798Z,69.77
2023-02-08T01:00:23.198Z,69.25
2023-02-08T01:02:51.046Z,69.52
2023-02-08T01:05:19.247Z,69.94
2023-02-08T01:07:46.627Z,70.32
2023-02-08T01:10:14.331Z,69.55
2023-02-08T01:12:41.701Z,68.24
2023-02-08T01:15:09.573Z,68.47
2023-02-08T01:17:37.992Z,68.28
2023-02-08T01:20:05.594Z,68.59
2023-02-08T01:22:32.856Z,70.44
2023-02-08T01:25:01.387Z,69.16
2023-02-08T01:27:29.886Z,68.49
2023-02-08T01:29:57.960Z,70.85
2023-02-08T01:32:25.537Z,69.69
2023-02-08T01:34:54.290Z,70.69
2023-02-08T01:37:22.289Z,70.58
2023-02-08T01:39:50.005Z,70.05
2023-02-08T01:42:19.426Z,69.08
2023-02-08T01:44:59.098Z,69.64
2023-02-08T01:47:27.665Z,69.94
2023-02-08T01:49:55.885Z,70.60
2023-02-08T01:52:27.122Z,69.56
2023-02-08T01:55:15.541Z,70.62
2023-02-08T01:57:43.883Z,70.56
2023-02-08T02:00:21.458Z,69.62
2023-02-08T02:02:53.746Z,70.00
2023-02-08T02:05:24.025Z,69.21
2023-02-08T02:07:55.935Z,70.90
2023-02-08T02:10:29.861Z,71.15
2023-02-08T02:13:02.538Z,71.41
2023-02-08T02:15:29.932Z,71.77
2023-02-08T02:17:57.756Z,70.82
2023-02-08T02:20:40.692Z,70.18
2023-02-08T02:23:33.208Z,70.76
2023-02-08T02:26:31.229Z,70.96
2023-02-08T02:29:34.479Z,71.28
2023-02-08T02:32:09.804Z,71.04
2023-02-08T02:34:43.336Z,71.30
2023-02-08T02:37:28.441Z,71.48
2023-02-08T02:40:16.197Z,69.94
2023-02-08T02:43:18.593Z,69.59
2023-02-08T02:45:52.215Z,70.41
2023-02-08T02:48:25.708Z,70.08
2023-02-08T02:51:02.454Z,71.19
2023-02-08T02:53:38.470Z,71.75
2023-02-08T02:56:29.769Z,70.08
2023-02-08T02:59:02.728Z,71.90
2023-02-08T03:01:30.905Z,72.02
2023-02-08T03:03:59.046Z,71.67
2023-02-08T03:06:46.048Z,70.54
2023-02-08T03:09:49.088Z,70.53
2023-02-08T03:12:40.342Z,70.04
2023-02-08T03:15:46.548Z,70.75
2023-02-08T03:18:13.797Z,71.39
2023-02-08T03:21:19.196Z,71.84
2023-02-08T03:23:54.297Z,71.03
2023-02-08T03:26:40.618Z,70.95
2023-02-08T03:29:47.279Z,72.17
2023-02-08T03:32:24.456Z,73.58
2023-02-08T03:34:58.216Z,72.37
2023-02-08T03:37:46.407Z,72.24
2023-02-08T03:40:28.677Z,73.63
2023-02-08T03:43:00.038Z,72.43
2023-02-08T03:45:33.528Z,72.88
2023-02-08T03:48:04.973Z,73.15
2023-02-08T03:50:35.456Z,73.28
2023-02-08T03:53:04.202Z,73.68
2023-02-08T03:55:35.456Z,72.94
2023-02-08T03:58:12.951Z,72.28
2023-02-08T04:00:45.221Z,71.88
2023-02-08T04:03:19.826Z,71.42
2023-02-08T04:05:48.160Z,71.31
2023-02-08T04:08:16.005Z,70.83
2023-02-08T04:10:43.501Z,70.66
2023-02-08T04:13:10.885Z,70.13
2023-02-08T04:15:38.815Z,70.10
2023-02-08T04:18:06.191Z,70.20
2023-02-08T04:20:33.496Z,70.26
2023-02-08T04:23:01.123Z,70.03
2023-02-08T04:25:28.452Z,70.54
2023-02-08T04:27:55.888Z,70.74
2023-02-08T04:30:23.748Z,70.49
2023-02-08T04:32:51.019Z,70.80
2023-02-08T04:35:18.473Z,70.84
2023-02-08T04:37:46.116Z,70.54
2023-02-08T04:40:13.468Z,71.51
2023-02-08T04:42:40.801Z,70.78
2023-02-08T04:45:10.023Z,70.98
2023-02-08T04:47:38.598Z,70.18
2023-02-08T04:50:06.362Z,69.68
2023-02-08T04:52:34.043Z,69.40
2023-02-08T04:55:01.430Z,70.54
2023-02-08T04:57:29.002Z,70.49
2023-02-08T04:59:58.340Z,70.76
2023-02-08T05:02:26.740Z,70.10
2023-02-08T05:04:54.220Z,70.86
2023-02-08T05:07:22.089Z,70.44
2023-02-08T05:09:49.440Z,70.34
2023-02-08T05:12:16.885Z,70.54
2023-02-08T05:14:44.631Z,71.33
2023-02-08T05:17:12.076Z,71.72
2023-02-08T05:19:39.446Z,71.04
2023-02-08T05:22:07.403Z,71.46
2023-02-08T05:24:35.140Z,72.81
2023-02-08T05:27:02.563Z,73.47
2023-02-08T05:29:30.252Z,72.89
2023-02-08T05:31:57.666Z,73.78
2023-02-08T05:34:24.987Z,74.34
2023-02-08T05:36:52.734Z,74.47
2023-02-08T05:39:20.135Z,74.32
2023-02-08T05:41:47.548Z,74.24
2023-02-08T05:44:15.375Z,72.98
2023-02-08T05:46:43.017Z,72.00
2023-02-08T05:49:10.429Z,72.78
2023-02-08T05:51:38.164Z,73.50
2023-02-08T05:54:05.651Z,73.51
2023-02-08T05:56:33.142Z,73.23
2023-02-08T05:59:02.047Z,72.33
2023-02-08T06:01:29.773Z,71.80
2023-02-08T06:04:01.224Z,71.45
2023-02-08T06:06:28.923Z,71.52
2023-02-08T06:08:56.642Z,71.09
2023-02-08T06:11:23.981Z,71.33
2023-02-08T06:13:51.362Z,71.04
2023-02-08T06:16:20.130Z,70.08
2023-02-08T06:18:47.648Z,70.17
2023-02-08T06:21:15.044Z,70.16
2023-02-08T06:23:42.688Z,70.29
2023-02-08T06:26:09.993Z,69.96
2023-02-08T06:28:37.345Z,70.70
2023-02-08T06:31:05.123Z,70.38
2023-02-08T06:33:32.436Z,70.19
2023-02-08T06:35:59.779Z,70.18
2023-02-08T06:38:27.418Z,70.40
2023-02-08T06:40:55.048Z,70.34
2023-02-08T06:43:22.840Z,70.20
2023-02-08T06:45:50.846Z,70.07
2023-02-08T06:48:18.142Z,69.21
2023-02-08T06:50:45.402Z,70.14
2023-02-08T06:53:13.040Z,69.48
2023-02-08T06:55:40.601Z,69.30
2023-02-08T06:58:07.943Z,67.00
2023-02-08T07:00:35.852Z,68.86
2023-02-08T07:03:03.212Z,67.54
2023-02-08T07:05:30.584Z,66.48
2023-02-08T07:07:59.546Z,64.61
2023-02-08T07:10:27.346Z,65.13
2023-02-08T07:12:54.675Z,64.46
2023-02-08T07:15:22.442Z,66.05
2023-02-08T07:17:49.958Z,66.01
2023-02-08T07:20:17.364Z,65.04
2023-02-08T07:22:45.118Z,64.64
2023-02-08T07:25:12.521Z,65.94
2023-02-08T07:27:39.880Z,65.17
2023-02-08T07:30:08.389Z,64.04
2023-02-08T07:32:36.398Z,64.83
2023-02-08T07:35:03.928Z,64.64
2023-02-08T07:37:33.105Z,64.46
2023-02-08T07:40:00.378Z,62.88
2023-02-08T07:42:27.786Z,65.63
2023-02-08T07:44:55.793Z,63.57
2023-02-08T07:47:23.071Z,63.80
2023-02-08T07:49:50.650Z,60.88
2023-02-08T07:52:18.720Z,62.09
2023-02-08T07:54:46.310Z,61.58
2023-02-08T07:57:15.012Z,60.42
2023-02-08T07:59:42.690Z,58.25
2023-02-08T08:02:10.279Z,58.69
2023-02-08T08:04:38.028Z,58.87
2023-02-08T08:07:05.553Z,59.19
2023-02-08T08:09:33.098Z,53.68
2023-02-08T08:12:00.966Z,52.75
2023-02-08T08:14:28.358Z,52.63
2023-02-08T08:16:55.637Z,52.99
2023-02-08T08:19:23.325Z,56.45
2023-02-08T08:21:50.599Z,53.44
2023-02-08T08:24:17.982Z,52.32
2023-02-08T08:26:45.658Z,50.70
2023-02-08T08:29:13.568Z,51.92
2023-02-08T08:31:43.677Z,52.52
2023-02-08T08:34:11.425Z,53.06
2023-02-08T08:36:38.712Z,52.84
2023-02-08T08:39:06.148Z,52.90
2023-02-08T08:41:34.044Z,53.15
2023-02-08T08:44:01.380Z,54.25
2023-02-08T08:46:28.828Z,55.62
2023-02-08T08:48:56.592Z,56.00
2023-02-08T08:51:24.739Z,55.53
2023-02-08T08:53:52.151Z,53.29
2023-02-08T08:56:19.741Z,53.66
2023-02-08T08:58:47.953Z,53.66
2023-02-08T09:01:15.874Z,54.67
2023-02-08T09:03:43.595Z,54.40
2023-02-08T09:06:11.470Z,54.19
2023-02-08T09:08:39.072Z,51.66
2023-02-08T09:11:12.950Z,53.55
2023-02-08T09:13:41.145Z,53.85
2023-02-08T09:16:17.757Z,52.38
2023-02-08T09:18:45.580Z,52.98
2023-02-08T09:21:18.926Z,52.48
2023-02-08T09:23:49.982Z,53.35
2023-02-08T09:26:19.933Z,52.81
2023-02-08T09:28:47.672Z,52.89
2023-02-08T09:31:26.884Z,53.78
2023-02-08T09:33:57.702Z,54.75
2023-02-08T09:36:27.711Z,51.81
2023-02-08T09:39:00.523Z,53.90
2023-02-08T09:41:53.429Z,51.84
2023-02-08T09:44:42.719Z,52.31
2023-02-08T09:47:22.680Z,54.16
2023-02-08T09:50:05.652Z,53.67
2023-02-08T09:52:43.397Z,53.08
2023-02-08T09:55:58.129Z,52.86
2023-02-08T09:58:34.562Z,53.51
2023-02-08T10:01:05.929Z,54.47
2023-02-08T10:03:44.356Z,53.69
2023-02-08T10:06:17.765Z,53.30
2023-02-08T10:08:48.129Z,53.86
2023-02-08T10:11:46.249Z,52.81
2023-02-08T10:14:19.783Z,52.37
2023-02-08T10:16:50.291Z,53.18
2023-02-08T10:19:45.784Z,52.81
2023-02-08T10:22:24.957Z,53.66
2023-02-08T10:25:07.923Z,53.19
2023-02-08T10:27:47.649Z,52.44
2023-02-08T10:30:21.591Z,51.70
2023-02-08T10:33:02.990Z,51.83
2023-02-08T10:35:38.300Z,51.36
2023-02-08T10:38:45.960Z,51.60
2023-02-08T10:41:23.520Z,48.58
2023-02-08T10:44:36.389Z,46.96
2023-02-08T10:47:15.853Z,47.82
2023-02-08T10:50:00.005Z,47.91
2023-02-08T10:52:28.373Z,47.84
2023-02-08T10:55:04.442Z,50.85
2023-02-08T10:57:40.844Z,49.79
2023-02-08T11:00:23.788Z,50.89
2023-02-08T11:02:53.429Z,49.26
2023-02-08T11:05:29.399Z,48.28
2023-02-08T11:08:21.044Z,48.82
2023-02-08T11:11:10.207Z,50.20
2023-02-08T11:13:51.896Z,49.23
2023-02-08T11:16:28.018Z,48.01
2023-02-08T11:19:05.545Z,49.40
2023-02-08T11:21:39.550Z,49.68
2023-02-08T11:24:29.881Z,49.09
2023-02-08T11:27:01.985Z,49.29
2023-02-08T11:29:33.189Z,49.64
2023-02-08T11:32:23.666Z,48.30
2023-02-08T11:34:51.945Z,46.96
2023-02-08T11:40:25.295Z,47.48
2023-02-08T11:42:59.319Z,48.72
2023-02-08T11:45:36.111Z,48.12
2023-02-08T11:48:05.250Z,47.38
2023-02-08T11:50:34.603Z,47.57
2023-02-08T11:53:06.279Z,45.74
2023-02-08T11:55:35.422Z,45.34
2023-02-08T11:58:19.400Z,45.31
2023-02-08T12:01:06.466Z,44.97
2023-02-08T12:03:40.232Z,44.22
2023-02-08T12:06:22.772Z,45.34
2023-02-08T12:09:16.227Z,46.54
2023-02-08T12:11:50.381Z,44.59
2023-02-08T12:14:36.987Z,42.83
2023-02-08T12:17:47.660Z,42.24
2023-02-08T12:20:33.571Z,44.93
2023-02-08T12:23:10.058Z,44.47
2023-02-08T12:25:51.842Z,41.88
2023-02-08T12:28:37.896Z,43.03
2023-02-08T12:31:33.483Z,44.07
2023-02-08T12:34:25.884Z,44.73
2023-02-08T12:37:42.203Z,44.32
2023-02-08T12:40:55.586Z,45.06
2023-02-08T12:43:37.518Z,45.81
2023-02-08T12:46:11.738Z,47.57
2023-02-08T12:48:49.884Z,49.48
2023-02-08T12:51:34.844Z,48.63
2023-02-08T12:54:12.283Z,48.13
2023-02-08T12:56:53.562Z,49.14
2023-02-08T12:59:40.463Z,48.30
2023-02-08T13:02:21.623Z,48.06
2023-02-08T13:04:54.329Z,47.72
2023-02-08T13:07:31.846Z,48.20
2023-02-08T13:10:27.131Z,47.84
2023-02-08T13:12:58.826Z,49.10
2023-02-08T13:15:35.989Z,51.33
2023-02-08T13:18:13.221Z,50.81
2023-02-08T13:20:51.412Z,51.27
2023-02-08T13:23:23.075Z,51.03
2023-02-08T13:25:55.008Z,51.98
2023-02-08T13:28:24.834Z,51.57
2023-02-08T13:31:06.945Z,50.48
2023-02-08T13:34:08.531Z,49.77
2023-02-08T13:36:38.537Z,47.93
2023-02-08T13:39:09.477Z,47.23
2023-02-08T13:41:37.839Z,48.21
2023-02-08T13:44:16.982Z,48.57
2023-02-08T13:46:50.226Z,48.10
2023-02-08T13:49:56.505Z,48.06
2023-02-08T13:52:46.356Z,48.63
2023-02-08T13:55:38.372Z,49.51
2023-02-08T13:58:27.446Z,48.29
2023-02-08T14:00:57.454Z,47.50
2023-02-08T14:03:33.668Z,47.40
2023-02-08T14:06:06.467Z,46.79
2023-02-08T14:08:47.187Z,47.36
2023-02-08T14:11:14.437Z,45.29
2023-02-08T14:13:55.308Z,43.69
2023-02-08T14:16:43.885Z,42.04
2023-02-08T14:19:20.456Z,38.60
2023-02-08T14:21:49.388Z,36.30
2023-02-08T14:24:24.623Z,35.14
2023-02-08T14:27:06.455Z,34.30
2023-02-08T14:29:35.990Z,35.51
2023-02-08T14:32:05.198Z,37.44
2023-02-08T14:34:35.471Z,38.13
2023-02-08T14:37:30.493Z,38.82
2023-02-08T14:40:16.797Z,40.40
2023-02-08T14:43:02.850Z,42.15
2023-02-08T14:45:39.941Z,44.68
2023-02-08T14:48:39.805Z,44.52
2023-02-08T14:51:23.266Z,45.73
2023-02-08T14:54:15.001Z,47.93
2023-02-08T14:56:57.433Z,49.30
2023-02-08T14:59:28.877Z,47.90
2023-02-08T15:02:02.648Z,50.38
2023-02-08T15:04:31.021Z,50.28
2023-02-08T15:07:04.026Z,50.29
2023-02-08T15:09:36.754Z,51.46
2023-02-08T15:12:34.527Z,51.69
2023-02-08T15:15:04.854Z,51.85
2023-02-08T15:17:37.720Z,51.96
2023-02-08T15:20:09.273Z,53.69
2023-02-08T15:22:40.016Z,54.01
2023-02-08T15:25:19.972Z,53.82
2023-02-08T15:27:54.154Z,54.51
2023-02-08T15:30:37.033Z,53.58
2023-02-08T15:33:10.615Z,53.71
2023-02-08T15:35:38.300Z,54.74
2023-02-08T15:38:15.815Z,54.45
2023-02-08T15:40:43.795Z,54.22
2023-02-08T15:43:13.334Z,54.92
2023-02-08T15:45:40.910Z,54.77
2023-02-08T15:48:09.055Z,55.20
2023-02-08T15:50:36.867Z,55.61
2023-02-08T15:53:06.917Z,55.42
2023-02-08T15:55:52.060Z,55.68
2023-02-08T15:58:41.535Z,55.69
2023-02-08T16:01:15.439Z,56.32
2023-02-08T16:03:47.628Z,57.48
2023-02-08T16:06:20.774Z,57.49
2023-02-08T16:08:51.537Z,57.26
2023-02-08T16:11:26.273Z,57.65
2023-02-08T16:13:57.265Z,58.61
2023-02-08T16:16:35.035Z,57.83
2023-02-08T16:19:23.220Z,57.99
2023-02-08T16:21:51.078Z,58.43
2023-02-08T16:24:27.341Z,59.35
2023-02-08T16:27:00.201Z,59.96
2023-02-08T16:29:31.754Z,60.20
2023-02-08T16:32:05.644Z,59.70
2023-02-08T16:34:37.473Z,59.32
2023-02-08T16:37:07.267Z,58.85
2023-02-08T16:39:39.760Z,59.65
2023-02-08T16:42:29.908Z,59.72
2023-02-08T16:45:14.359Z,60.52
2023-02-08T16:48:13.398Z,61.76
2023-02-08T16:50:46.223Z,61.53
2023-02-08T16:53:13.730Z,64.63
2023-02-08T16:55:41.114Z,62.93
2023-02-08T16:58:14.916Z,61.68
2023-02-08T17:00:42.566Z,61.76
2023-02-08T17:03:10.452Z,61.83
2023-02-08T17:05:40.082Z,61.42
2023-02-08T17:08:12.915Z,61.44
2023-02-08T17:10:41.198Z,62.09
2023-02-08T17:13:25.047Z,62.99
2023-02-08T17:15:54.021Z,62.44
2023-02-08T17:18:21.457Z,62.45
2023-02-08T17:20:50.049Z,63.08
2023-02-08T17:23:18.008Z,63.22
2023-02-08T17:25:46.025Z,63.91
2023-02-08T17:28:18.821Z,64.36
2023-02-08T17:30:47.901Z,64.15
2023-02-08T17:33:18.603Z,63.34
2023-02-08T17:35:48.694Z,64.84
2023-02-08T17:38:17.294Z,64.03
2023-02-08T17:40:45.774Z,65.39
2023-02-08T17:43:13.782Z,66.58
2023-02-08T17:45:43.716Z,67.22
2023-02-08T17:48:13.637Z,66.62
2023-02-08T17:50:48.005Z,66.01
2023-02-08T17:53:16.222Z,65.57
2023-02-08T17:55:45.589Z,66.28
2023-02-08T17:58:13.530Z,65.50
2023-02-08T18:00:41.328Z,64.77
2023-02-08T18:03:09.756Z,65.24
2023-02-08T18:05:37.648Z,64.87
2023-02-08T18:08:05.347Z,64.60
2023-02-08T18:10:33.088Z,65.10
2023-02-08T18:13:00.396Z,64.81
2023-02-08T18:15:27.717Z,64.58
2023-02-08T18:17:55.498Z,64.94
2023-02-08T18:20:23.044Z,64.87
2023-02-08T18:22:50.430Z,64.92
2023-02-08T18:25:19.213Z,66.20
2023-02-08T18:27:46.643Z,65.84
2023-02-08T18:30:14.333Z,65.84
2023-02-08T18:32:42.440Z,65.85
2023-02-08T18:35:09.917Z,65.50
2023-02-08T18:37:38.618Z,66.67
2023-02-08T18:40:08.339Z,66.08
2023-02-08T18:42:36.390Z,66.53
2023-02-08T18:45:05.265Z,66.17
2023-02-08T18:47:38.154Z,65.46
2023-02-08T18:50:06.610Z,65.40
2023-02-08T18:52:34.533Z,64.86
2023-02-08T18:55:02.098Z,64.78
2023-02-08T18:57:29.470Z,65.39
2023-02-08T18:59:57.189Z,65.52
2023-02-08T19:02:26.514Z,66.88
2023-02-08T19:04:53.855Z,66.96
2023-02-08T19:07:21.678Z,66.89
2023-02-08T19:09:49.700Z,67.14
2023-02-08T19:12:19.116Z,66.62
2023-02-08T19:14:50.945Z,65.94
2023-02-08T19:17:18.988Z,66.29
2023-02-08T19:19:46.886Z,66.11
2023-02-08T19:22:14.421Z,65.28
2023-02-08T19:24:41.761Z,65.72
2023-02-08T19:27:09.405Z,65.51
2023-02-08T19:29:36.824Z,66.06
2023-02-08T19:32:04.435Z,66.57
2023-02-08T19:34:32.397Z,66.96
2023-02-08T19:37:00.722Z,66.70
2023-02-08T19:39:28.251Z,66.62
2023-02-08T19:41:59.034Z,66.73
2023-02-08T19:44:29.862Z,66.40
2023-02-08T19:46:58.571Z,67.34
2023-02-08T19:49:27.421Z,66.38
2023-02-08T19:51:55.487Z,66.64
2023-02-08T19:54:23.550Z,66.37
2023-02-08T19:56:52.362Z,65.54
2023-02-08T19:59:23.492Z,65.80
2023-02-08T20:01:51.790Z,64.87
2023-02-08T20:04:20.182Z,65.02
2023-02-08T20:06:52.087Z,65.39
2023-02-08T20:09:20.434Z,65.74
2023-02-08T20:11:57.880Z,64.68
2023-02-08T20:14:29.315Z,64.94
2023-02-08T20:16:57.667Z,64.62
2023-02-08T20:19:25.687Z,65.26
2023-02-08T20:21:53.471Z,65.49
2023-02-08T20:24:21.097Z,66.51
2023-02-08T20:26:49.146Z,65.77
2023-02-08T20:29:18.323Z,66.39
2023-02-08T20:31:48.494Z,66.73
2023-02-08T20:34:18.972Z,65.90
2023-02-08T20:37:06.761Z,65.78
2023-02-08T20:39:37.126Z,65.76
2023-02-08T20:42:05.258Z,65.76
2023-02-08T20:44:32.724Z,66.16
2023-02-08T20:47:00.579Z,66.52
2023-02-08T20:49:28.431Z,66.63
2023-02-08T20:51:55.925Z,66.01
2023-02-08T20:54:24.867Z,65.78
2023-02-08T20:56:53.783Z,65.85
2023-02-08T20:59:21.592Z,66.00
2023-02-08T21:01:49.346Z,66.29
2023-02-08T21:04:18.173Z,66.60
2023-02-08T21:06:46.548Z,66.11
2023-02-08T21:09:16.116Z,65.76
2023-02-08T21:11:44.887Z,65.33
2023-02-08T21:14:18.931Z,65.78
2023-02-08T21:16:56.353Z,65.30
2023-02-08T21:19:24.790Z,65.18
2023-02-08T21:21:54.341Z,65.13
2023-02-08T21:24:21.633Z,66.21
2023-02-08T21:26:49.068Z,66.03
2023-02-08T21:29:16.988Z,66.31
2023-02-08T21:31:44.697Z,65.45
2023-02-08T21:34:13.827Z,65.41
2023-02-08T21:36:41.975Z,65.86
2023-02-08T21:39:09.897Z,66.59
2023-02-08T21:41:37.483Z,66.37
2023-02-08T21:44:08.308Z,65.80
2023-02-08T21:46:35.808Z,66.05
2023-02-08T21:49:21.601Z,65.62
2023-02-08T21:52:07.888Z,65.07
2023-02-08T21:54:41.862Z,64.57
2023-02-08T21:57:09.609Z,64.61
2023-02-08T21:59:37.666Z,64.60
2023-02-08T22:02:08.744Z,64.69
2023-02-08T22:04:55.987Z,64.39
2023-02-08T22:07:24.725Z,64.45
2023-02-08T22:09:52.778Z,64.22
2023-02-08T22:12:22.066Z,64.44
2023-02-08T22:14:49.883Z,64.70
2023-02-08T22:17:18.113Z,64.29
2023-02-08T22:19:45.560Z,64.91
2023-02-08T22:22:13.020Z,65.12
2023-02-08T22:24:40.678Z,65.20
2023-02-08T22:27:08.060Z,64.64
2023-02-08T22:29:35.815Z,63.77
2023-02-08T22:32:05.860Z,64.57
2023-02-08T22:34:33.491Z,64.55
2023-02-08T22:37:03.906Z,63.42
2023-02-08T22:39:33.109Z,63.95
2023-02-08T22:42:00.465Z,64.46
2023-02-08T22:44:27.836Z,64.61
2023-02-08T22:46:57.479Z,65.74
2023-02-08T22:49:24.743Z,65.08
2023-02-08T22:51:52.019Z,64.42
2023-02-08T22:54:19.991Z,64.64
2023-02-08T22:56:47.220Z,64.66
2023-02-08T22:59:14.500Z,65.07
2023-02-08T23:01:42.149Z,64.44
2023-02-08T23:04:09.511Z,64.85
2023-02-08T23:06:37.485Z,64.52
2023-02-08T23:09:06.821Z,64.13
2023-02-08T23:11:34.642Z,65.05
2023-02-08T23:14:01.966Z,64.28
2023-02-08T23:16:29.686Z,65.18
2023-02-08T23:18:57.006Z,64.62
2023-02-08T23:21:25.589Z,64.38
2023-02-08T23:23:53.200Z,64.06
2023-02-08T23:26:22.013Z,63.77
2023-02-08T23:28:51.404Z,63.65
2023-02-08T23:31:21.040Z,63.19
2023-02-08T23:33:49.328Z,63.50
2023-02-08T23:36:19.848Z,63.57
2023-02-08T23:38:48.286Z,63.71
2023-02-08T23:41:18.613Z,63.83
2023-02-08T23:43:46.919Z,63.47
2023-02-08T23:46:17.165Z,63.65
2023-02-08T23:48:45.857Z,64.73
2023-02-08T23:51:13.652Z,63.91
2023-02-08T23:53:41.648Z,64.34
2023-02-08T23:56:15.191Z,64.01
2023-02-08T23:58:44.622Z,63.25
